Time;durP1;ratioP1;P1;durP2;ratioP2;P2;SDS_P1;SDS_P2;PMS_P1;PMS_P2;Temp;Humidity;BMP_temperature;BMP_pressure;BME280_temperature;BME280_humidity;BME280_pressure;Samples;Min_cycle;Max_cycle;Signal;HPM_P1;HPM_P2
2021/12/30 00:03:27;;;;;;;35.95;14.13;;;;;;;4.03;65.99;99665.16;7684345;32;38627;-75
2021/12/30 00:07:44;;;;;;;40.42;13.48;;;;;;;4.17;65.60;99664.94;7684552;32;38436;-75
2021/12/30 00:12:00;;;;;;;41.97;13.68;;;;;;;4.00;66.18;99675.59;7684088;32;39036;-76
2021/12/30 00:16:28;;;;;;;30.55;12.98;;;;;;;3.98;65.79;99689.31;7684228;32;40566;-75
2021/12/30 00:20:44;;;;;;;41.05;14.87;;;;;;;3.91;66.41;99699.38;7683974;32;38724;-76
2021/12/30 00:25:00;;;;;;;33.45;14.52;;;;;;;3.82;66.37;99703.47;7684016;32;37341;-76
2021/12/30 00:29:16;;;;;;;62.78;15.98;;;;;;;4.03;65.94;99704.81;7683889;32;39302;-76
2021/12/30 00:33:34;;;;;;;31.55;13.13;;;;;;;3.88;66.22;99711.47;7683760;32;40830;-76
2021/12/30 00:37:51;;;;;;;34.55;13.98;;;;;;;4.10;65.78;99714.44;7683724;32;38029;-75
2021/12/30 00:42:07;;;;;;;38.92;13.62;;;;;;;4.16;65.55;99711.84;7683792;32;37415;-75
2021/12/30 00:46:23;;;;;;;34.35;12.55;;;;;;;4.14;65.56;99718.31;7683736;32;40192;-75
2021/12/30 00:50:41;;;;;;;38.40;13.57;;;;;;;4.08;65.60;99729.22;7683606;32;39819;-76
2021/12/30 00:54:57;;;;;;;48.33;14.10;;;;;;;4.12;65.60;99736.63;7683350;32;37866;-76
2021/12/30 00:59:13;;;;;;;33.72;13.60;;;;;;;3.83;66.28;99737.44;7683369;32;37245;-75
2021/12/30 01:03:30;;;;;;;50.90;14.85;;;;;;;4.14;65.40;99731.81;7683369;32;39310;-76
2021/12/30 01:07:46;;;;;;;39.22;12.90;;;;;;;3.97;66.05;99746.16;7683223;32;39582;-76
2021/12/30 01:12:03;;;;;;;26.23;11.63;;;;;;;4.05;65.66;99735.06;7682837;32;38150;-75
2021/12/30 01:16:23;;;;;;;33.78;13.75;;;;;;;4.02;65.89;99741.75;7682937;32;37153;-75
2021/12/30 01:20:39;;;;;;;30.77;12.77;;;;;;;4.19;65.21;99739.22;7682844;32;39535;-75
2021/12/30 01:24:55;;;;;;;38.03;12.43;;;;;;;4.07;65.34;99758.06;7682681;32;39866;-76
2021/12/30 01:29:12;;;;;;;29.30;12.32;;;;;;;4.12;65.42;99752.81;7682957;32;37825;-75
2021/12/30 01:33:28;;;;;;;29.12;12.10;;;;;;;4.06;65.79;99756.41;7686107;32;38008;-75
2021/12/30 01:37:44;;;;;;;29.95;11.77;;;;;;;3.93;66.45;99756.59;7686215;32;39891;-76
2021/12/30 01:42:00;;;;;;;20.98;10.65;;;;;;;4.06;66.03;99775.31;7685993;32;40578;-76
2021/12/30 01:46:17;;;;;;;28.35;11.95;;;;;;;4.01;66.11;99772.47;7685874;32;37884;-76
2021/12/30 01:50:33;;;;;;;55.75;12.23;;;;;;;3.84;66.50;99768.78;7685952;32;38000;-76
2021/12/30 01:54:49;;;;;;;35.17;10.98;;;;;;;3.93;66.32;99770.94;7685795;32;39597;-76
2021/12/30 01:59:06;;;;;;;24.60;11.38;;;;;;;3.89;66.27;99764.34;7685820;32;40002;-76
2021/12/30 02:03:23;;;;;;;22.33;10.52;;;;;;;3.76;66.56;99762.66;7685675;32;37954;-76
2021/12/30 02:07:40;;;;;;;26.58;11.85;;;;;;;3.93;66.09;99756.59;7685799;32;38201;-76
2021/12/30 02:11:57;;;;;;;21.92;10.63;;;;;;;3.88;66.15;99753.78;7685492;32;39088;-76
2021/12/30 02:16:15;;;;;;;25.42;10.57;;;;;;;4.04;65.49;99757.72;7671870;32;39902;-75
2021/12/30 02:20:44;;;;;;;25.12;10.50;;;;;;;3.61;66.37;99775.69;7685625;32;38188;-75
2021/12/30 02:25:03;;;;;;;22.62;10.93;;;;;;;4.17;64.72;99786.38;7685470;32;36868;-76
2021/12/30 02:29:19;;;;;;;20.05;9.95;;;;;;;4.09;64.90;99803.72;7685640;32;39304;-75
2021/12/30 02:33:36;;;;;;;21.45;10.55;;;;;;;4.04;65.19;99796.31;7685440;32;39675;-75
2021/12/30 02:37:53;;;;;;;18.48;9.80;;;;;;;4.07;65.06;99790.47;7685432;32;37900;-75
2021/12/30 02:42:09;;;;;;;18.23;9.90;;;;;;;4.06;65.20;99779.87;7684639;32;37107;-75
2021/12/30 02:46:28;;;;;;;18.98;9.35;;;;;;;3.86;65.87;99775.56;7685182;32;40103;-75
2021/12/30 02:50:46;;;;;;;20.80;10.15;;;;;;;3.93;65.53;99778.19;7685408;32;40897;-74
2021/12/30 02:55:03;;;;;;;19.42;9.43;;;;;;;4.09;65.03;99766.75;7684857;32;38084;-76
2021/12/30 02:59:19;;;;;;;19.87;9.43;;;;;;;3.80;65.74;99781.06;7685172;32;37838;-75
2021/12/30 03:03:37;;;;;;;24.80;11.70;;;;;;;3.59;66.24;99780.50;7685200;32;39337;-76
2021/12/30 03:07:54;;;;;;;20.95;10.93;;;;;;;3.68;65.79;99781.00;7684919;32;40015;-76
2021/12/30 03:12:10;;;;;;;24.65;11.00;;;;;;;3.97;65.12;99773.16;7684755;32;38424;-75
2021/12/30 03:16:32;;;;;;;21.45;11.38;;;;;;;3.62;66.56;99785.41;7685151;32;37740;-76
2021/12/30 03:20:49;;;;;;;25.42;10.43;;;;;;;3.74;66.14;99780.09;7685032;32;39405;-75
2021/12/30 03:25:12;;;;;;;19.77;10.13;;;;;;;3.80;66.09;99786.47;7684901;32;40709;-75
2021/12/30 03:29:28;;;;;;;21.77;10.70;;;;;;;3.95;65.74;99770.72;7684758;32;37601;-76
2021/12/30 03:33:45;;;;;;;18.95;10.43;;;;;;;4.02;65.45;99766.03;7684799;32;38011;-75
2021/12/30 03:38:01;;;;;;;22.60;10.48;;;;;;;3.71;66.43;99762.50;7684814;32;39499;-75
2021/12/30 03:42:17;;;;;;;26.65;9.60;;;;;;;3.80;65.76;99773.00;7684687;32;40822;-76
2021/12/30 03:46:34;;;;;;;25.70;9.80;;;;;;;3.85;65.54;99781.22;7684677;32;37917;-75
2021/12/30 03:50:52;;;;;;;21.75;10.25;;;;;;;3.82;65.51;99781.66;7684762;32;36861;-75
2021/12/30 03:55:08;;;;;;;19.70;9.32;;;;;;;3.98;64.83;99799.91;7684116;32;39101;-75
2021/12/30 03:59:24;;;;;;;21.70;9.57;;;;;;;3.66;66.01;99783.94;7671008;32;40101;-76
2021/12/30 04:03:42;;;;;;;19.75;10.23;;;;;;;3.45;66.68;99781.69;7684541;32;38036;-75
2021/12/30 04:07:58;;;;;;;21.73;9.57;;;;;;;3.72;65.94;99795.69;7684518;32;36891;-76
2021/12/30 04:12:14;;;;;;;21.52;10.45;;;;;;;3.65;66.14;99822.72;7683929;32;39009;-76
2021/12/30 04:16:30;;;;;;;20.00;9.68;;;;;;;3.67;66.95;99844.06;7670537;32;40609;-76
2021/12/30 04:20:46;;;;;;;21.08;10.13;;;;;;;3.90;66.15;99835.31;7684267;32;38001;-77
2021/12/30 04:25:05;;;;;;;24.48;10.43;;;;;;;3.65;66.15;99846.97;7684024;32;37308;-76
2021/12/30 04:29:22;;;;;;;20.17;9.38;;;;;;;3.78;65.93;99861.34;7684190;32;38346;-76
2021/12/30 04:33:39;;;;;;;19.42;8.82;;;;;;;3.68;65.87;99873.50;7684044;32;40030;-76
2021/12/30 04:37:55;;;;;;;23.45;10.05;;;;;;;3.71;65.94;99873.06;7683768;32;37955;-75
2021/12/30 04:42:11;;;;;;;18.30;9.63;;;;;;;3.92;65.49;99860.16;7683764;32;37241;-75
2021/12/30 04:46:27;;;;;;;19.92;9.30;;;;;;;3.95;65.26;99849.75;7683707;32;39308;-75
2021/12/30 04:50:46;;;;;;;18.20;8.15;;;;;;;4.07;64.70;99847.13;7683573;32;39899;-76
2021/12/30 04:55:03;;;;;;;16.65;9.00;;;;;;;3.94;64.80;99871.56;7683291;32;37861;-76
2021/12/30 04:59:20;;;;;;;17.55;8.73;;;;;;;3.79;65.77;99884.59;7683516;32;37141;-75
2021/12/30 05:03:36;;;;;;;19.42;8.65;;;;;;;4.03;64.27;99894.47;7683492;32;39370;-75
2021/12/30 05:07:53;;;;;;;16.80;8.20;;;;;;;3.75;65.08;99909.31;7686396;32;40163;-76
2021/12/30 05:12:09;;;;;;;17.58;8.55;;;;;;;3.63;65.60;99932.66;7686187;32;37773;-75
2021/12/30 05:16:25;;;;;;;19.80;9.23;;;;;;;3.88;65.12;99934.47;7686638;32;38017;-75
2021/12/30 05:20:42;;;;;;;17.52;9.23;;;;;;;3.81;65.10;99958.00;7686502;32;39258;-76
2021/12/30 05:24:58;;;;;;;18.50;9.00;;;;;;;3.69;65.51;99957.91;7686319;32;39579;-76
2021/12/30 05:29:15;;;;;;;17.42;8.70;;;;;;;3.97;64.58;99959.28;7686232;32;38601;-76
2021/12/30 05:33:31;;;;;;;17.02;8.82;;;;;;;4.02;64.51;99965.69;7686106;32;38003;-76
2021/12/30 05:37:48;;;;;;;19.35;8.45;;;;;;;4.04;64.39;99963.56;7686027;32;39384;-76
2021/12/30 05:42:04;;;;;;;17.73;8.65;;;;;;;4.08;64.18;99959.38;7672579;32;39969;-76
2021/12/30 05:46:21;;;;;;;20.52;8.02;;;;;;;3.80;64.90;99964.47;7686179;32;38627;-76
2021/12/30 05:50:37;;;;;;;18.52;9.02;;;;;;;3.97;64.75;99967.38;7686043;32;37190;-75
2021/12/30 05:54:53;;;;;;;18.98;8.57;;;;;;;3.91;65.03;99963.72;7685980;32;40027;-76
2021/12/30 05:59:09;;;;;;;19.62;9.25;;;;;;;4.12;64.07;99974.06;7685900;32;40046;-76
2021/12/30 06:03:26;;;;;;;21.12;9.18;;;;;;;4.07;64.33;99992.81;7685844;32;39091;-76
2021/12/30 06:07:42;;;;;;;20.85;10.25;;;;;;;3.80;65.36;99999.53;7685938;32;36917;-76
2021/12/30 06:11:58;;;;;;;21.40;9.60;;;;;;;3.84;65.66;99995.31;7685517;32;39392;-75
2021/12/30 06:16:14;;;;;;;16.90;9.18;;;;;;;3.84;65.15;99992.63;7685358;32;40766;-75
2021/12/30 06:20:30;;;;;;;17.73;9.07;;;;;;;3.90;65.46;99997.12;7685592;32;37944;-75
2021/12/30 06:24:47;;;;;;;19.80;9.98;;;;;;;4.02;65.06;100006.16;7685660;32;37410;-76
2021/12/30 06:29:04;;;;;;;22.70;9.80;;;;;;;3.96;65.32;100020.50;7685700;32;39464;-75
2021/12/30 06:33:20;;;;;;;21.33;9.90;;;;;;;3.81;65.51;100023.56;7685499;32;39643;-76
2021/12/30 06:37:37;;;;;;;18.58;8.95;;;;;;;3.83;65.76;100020.63;7685514;32;37571;-76
2021/12/30 06:41:53;;;;;;;20.62;10.15;;;;;;;3.89;65.48;100027.84;7685383;32;37118;-75
2021/12/30 06:46:10;;;;;;;22.00;10.80;;;;;;;3.81;65.85;100036.22;7685337;32;39302;-75
2021/12/30 06:50:31;;;;;;;16.98;9.55;;;;;;;3.74;65.77;100066.78;7685381;32;40077;-76
2021/12/30 06:54:47;;;;;;;23.50;10.02;;;;;;;3.88;65.58;100075.59;7685127;32;38133;-75
2021/12/30 06:59:04;;;;;;;22.17;9.75;;;;;;;3.78;66.18;100094.13;7685152;32;37273;-75
2021/12/30 07:03:20;;;;;;;23.20;10.48;;;;;;;3.77;66.26;100081.69;7685088;32;39265;-75
2021/12/30 07:07:36;;;;;;;24.35;9.50;;;;;;;3.95;65.54;100068.25;7685045;32;39996;-75
2021/12/30 07:11:54;;;;;;;22.95;9.23;;;;;;;3.83;66.35;100085.34;7684703;32;38183;-75
2021/12/30 07:16:10;;;;;;;21.90;9.75;;;;;;;3.81;66.10;100076.66;7684982;32;36970;-75
2021/12/30 07:20:26;;;;;;;19.87;9.77;;;;;;;3.80;66.32;100091.22;7685064;32;39015;-76
2021/12/30 07:24:42;;;;;;;21.60;9.90;;;;;;;4.03;65.69;100088.72;7684892;32;39621;-75
2021/12/30 07:28:59;;;;;;;26.62;8.57;;;;;;;4.07;65.58;100105.28;7684185;32;38761;-74
2021/12/30 07:33:15;;;;;;;21.35;10.05;;;;;;;4.76;72.84;100102.50;7684855;32;38001;-75
2021/12/30 07:37:31;;;;;;;24.20;9.35;;;;;;;4.96;67.61;100099.56;7684856;32;39660;-75
2021/12/30 07:41:47;;;;;;;19.55;8.43;;;;;;;4.85;64.70;100099.28;7684711;32;40809;-72
2021/12/30 07:46:06;;;;;;;14.18;7.68;;;;;;;4.47;63.90;100138.13;7684532;32;38749;-74
2021/12/30 07:50:23;;;;;;;17.98;7.80;;;;;;;4.19;65.18;100130.53;7684694;32;37382;-74
2021/12/30 07:54:39;;;;;;;17.58;8.95;;;;;;;4.25;65.16;100134.19;7684556;32;39340;-75
2021/12/30 07:58:55;;;;;;;19.33;9.75;;;;;;;4.28;64.77;100131.87;7684463;32;40019;-74
2021/12/30 08:03:14;;;;;;;18.17;8.77;;;;;;;4.38;64.89;100130.53;7684413;32;38394;-76
2021/12/30 08:07:30;;;;;;;16.70;8.75;;;;;;;4.28;65.06;100128.37;7684315;32;36786;-74
2021/12/30 08:11:46;;;;;;;17.27;8.63;;;;;;;4.18;65.63;100125.34;7684091;32;39805;-75
2021/12/30 08:16:02;;;;;;;18.55;8.40;;;;;;;4.45;64.68;100126.75;7684239;32;39641;-75
2021/12/30 08:20:22;;;;;;;22.17;9.00;;;;;;;4.31;65.25;100136.00;7684207;32;37805;-75
2021/12/30 08:24:38;;;;;;;20.70;8.45;;;;;;;4.13;65.91;100150.28;7684313;32;36904;-75
2021/12/30 08:29:01;;;;;;;21.00;8.93;;;;;;;4.23;65.29;100144.41;7684127;32;39380;-74
2021/12/30 08:33:18;;;;;;;22.85;9.15;;;;;;;4.25;65.91;100139.59;7684092;32;39927;-74
2021/12/30 08:37:34;;;;;;;23.12;8.85;;;;;;;4.12;65.92;100151.31;7683901;32;38447;-74
2021/12/30 08:41:50;;;;;;;18.20;8.80;;;;;;;4.36;65.63;100152.34;7682645;32;37422;-74
2021/12/30 08:46:06;;;;;;;20.52;9.00;;;;;;;4.62;65.00;100159.37;7683644;32;40101;-74
2021/12/30 08:50:25;;;;;;;24.05;9.15;;;;;;;4.49;65.34;100156.81;7659520;32;41029;-75
2021/12/30 08:54:41;;;;;;;23.83;9.88;;;;;;;4.33;66.03;100172.53;7680587;32;38704;-74
2021/12/30 08:58:57;;;;;;;16.95;8.90;;;;;;;4.06;67.07;100169.22;7682664;32;37955;-75
2021/12/30 09:03:16;;;;;;;20.65;9.13;;;;;;;4.45;65.82;100183.44;7669301;32;40221;-75
2021/12/30 09:07:32;;;;;;;31.00;12.20;;;;;;;4.60;65.18;100176.84;7682892;32;40883;-75
2021/12/30 09:11:49;;;;;;;21.27;11.10;;;;;;;4.32;66.23;100162.78;7681937;32;38733;-74
2021/12/30 09:16:05;;;;;;;32.22;11.27;;;;;;;4.68;65.15;100173.88;7682779;32;37423;-74
2021/12/30 09:20:21;;;;;;;22.45;10.23;;;;;;;4.57;64.68;100183.53;7681964;32;39322;-74
2021/12/30 09:24:37;;;;;;;22.92;12.45;;;;;;;4.39;64.94;100178.09;7682155;32;39847;-75
2021/12/30 09:28:57;;;;;;;23.92;11.45;;;;;;;4.35;65.84;100190.34;7682033;32;38805;-74
2021/12/30 09:33:15;;;;;;;26.83;11.07;;;;;;;4.45;65.50;100190.69;7682137;32;37656;-75
2021/12/30 09:37:31;;;;;;;25.65;9.52;;;;;;;4.44;65.99;100191.75;7682094;32;38402;-75
2021/12/30 09:41:48;;;;;;;31.23;16.90;;;;;;;4.55;65.78;100190.19;7681655;32;40024;-74
2021/12/30 09:46:04;;;;;;;34.17;11.23;;;;;;;4.68;65.51;100190.06;7681814;32;37792;-74
2021/12/30 09:50:29;;;;;;;25.85;14.05;;;;;;;4.54;66.14;100186.69;7681608;32;37316;-74
2021/12/30 09:54:45;;;;;;;27.55;11.25;;;;;;;4.78;65.53;100184.16;7685253;32;39785;-74
2021/12/30 09:59:02;;;;;;;22.83;11.25;;;;;;;4.66;65.58;100192.19;7661768;32;40197;-73
2021/12/30 10:03:18;;;;;;;29.02;12.37;;;;;;;4.91;64.87;100183.19;7658539;32;37689;-74
2021/12/30 10:07:34;;;;;;;27.67;12.60;;;;;;;4.54;66.22;100169.66;7659263;32;36938;-74
2021/12/30 10:12:00;;;;;;;27.25;12.50;;;;;;;4.88;65.18;100179.87;7678296;32;39277;-75
2021/12/30 10:16:17;;;;;;;27.58;11.68;;;;;;;4.74;66.29;100175.66;7668508;32;40027;-77
2021/12/30 10:20:33;;;;;;;32.10;12.30;;;;;;;4.96;65.44;100176.03;7658395;32;37949;-74
2021/12/30 10:24:51;;;;;;;28.55;11.98;;;;;;;4.58;66.42;100181.66;7655990;32;37276;-74
2021/12/30 10:29:07;;;;;;;25.98;12.02;;;;;;;4.88;66.06;100179.87;7658133;32;40053;-75
2021/12/30 10:33:27;;;;;;;34.67;12.98;;;;;;;4.97;65.96;100191.22;7656305;32;39933;-75
2021/12/30 10:37:45;;;;;;;35.65;12.60;;;;;;;5.32;64.76;100173.56;7655932;32;37869;-74
2021/12/30 10:42:09;;;;;;;26.95;13.73;;;;;;;5.19;65.42;100179.94;7658115;32;36474;-74
2021/12/30 10:46:26;;;;;;;31.27;14.15;;;;;;;5.19;65.55;100178.09;7656123;32;40182;-75
2021/12/30 10:50:43;;;;;;;32.00;12.18;;;;;;;5.29;65.50;100185.63;7658853;32;40794;-76
2021/12/30 10:55:08;;;;;;;24.98;11.57;;;;;;;5.33;65.31;100186.00;7658626;32;38825;-74
2021/12/30 10:59:26;;;;;;;30.65;12.73;;;;;;;5.49;65.03;100184.56;7658893;32;36913;-76
2021/12/30 11:03:50;;;;;;;30.80;12.05;;;;;;;5.40;65.36;100170.53;7657981;32;38298;-74
2021/12/30 11:08:06;;;;;;;26.23;11.60;;;;;;;5.25;65.86;100168.22;7658665;32;40858;-75
2021/12/30 11:12:31;;;;;;;28.95;12.60;;;;;;;5.76;64.99;100160.66;7658648;32;38694;-74
2021/12/30 11:17:18;;;;;;;21.80;10.60;;;;;;;5.56;65.88;100160.97;7658531;32;38085;-74
2021/12/30 11:21:44;;;;;;;25.05;10.63;;;;;;;5.63;65.51;100150.88;7658646;32;39279;-74
2021/12/30 11:26:00;;;;;;;25.67;10.48;;;;;;;5.52;65.50;100157.88;7658200;32;40746;-75
2021/12/30 11:30:18;;;;;;;30.95;11.32;;;;;;;5.65;64.77;100165.78;7644880;32;37617;-76
2021/12/30 11:34:34;;;;;;;27.37;11.18;;;;;;;5.51;64.99;100156.22;7656596;32;37941;-75
2021/12/30 11:38:52;;;;;;;26.75;11.25;;;;;;;5.32;65.62;100141.94;7656754;32;40164;-76
2021/12/30 11:43:13;;;;;;;25.45;11.27;;;;;;;5.21;66.06;100150.81;7658052;32;40010;-74
2021/12/30 11:47:36;;;;;;;27.30;12.40;;;;;;;5.43;65.64;100138.47;7658208;32;38672;-74
2021/12/30 11:51:52;;;;;;;;;;;;;;;5.56;65.17;100126.62;7658345;32;37306;-75
2021/12/30 11:56:22;;;;;;;29.67;13.15;;;;;;;5.55;65.16;100129.56;7658192;32;39803;-73
2021/12/30 12:00:39;;;;;;;25.27;12.07;;;;;;;5.40;65.48;100148.91;7658131;32;40831;-74
2021/12/30 12:04:55;;;;;;;25.92;11.65;;;;;;;5.54;65.27;100144.16;7657957;32;37952;-74
2021/12/30 12:09:22;;;;;;;27.80;12.23;;;;;;;5.34;66.02;100150.62;7657452;32;37522;-74
2021/12/30 12:13:41;;;;;;;23.15;12.05;;;;;;;5.54;65.44;100161.19;7657674;32;40156;-74
2021/12/30 12:18:11;;;;;;;27.52;12.75;;;;;;;5.55;65.09;100146.59;7657813;32;39970;-74
2021/12/30 12:22:29;;;;;;;27.42;12.02;;;;;;;5.72;64.51;100159.47;7644541;32;37965;-74
2021/12/30 12:26:46;;;;;;;29.70;13.02;;;;;;;5.38;65.62;100172.63;7657856;32;37210;-74
2021/12/30 12:31:06;;;;;;;32.08;13.40;;;;;;;5.20;66.03;100165.38;7644200;32;40148;-74
2021/12/30 12:35:26;;;;;;;28.17;13.25;;;;;;;5.32;66.22;100170.84;7657626;32;40894;-75
2021/12/30 12:39:42;;;;;;;28.83;13.95;;;;;;;5.58;65.41;100170.47;7657453;32;38197;-75
2021/12/30 12:44:06;;;;;;;26.37;12.95;;;;;;;5.40;65.91;100181.34;7657465;32;37888;-75
2021/12/30 12:48:25;;;;;;;27.62;13.02;;;;;;;5.57;65.34;100192.34;7643976;32;39061;-76
2021/12/30 12:52:47;;;;;;;30.15;13.05;;;;;;;5.39;65.92;100180.50;7657275;32;40104;-74
2021/12/30 12:57:10;;;;;;;30.27;13.20;;;;;;;5.40;65.92;100187.59;7656940;32;37710;-75
2021/12/30 13:01:29;;;;;;;32.70;14.65;;;;;;;5.19;66.20;100172.69;7657177;32;36901;-75
2021/12/30 13:05:59;;;;;;;33.25;14.48;;;;;;;4.95;67.70;100174.41;7657062;32;39430;-75
2021/12/30 13:10:19;;;;;;;30.92;13.23;;;;;;;5.55;65.82;100189.87;7656728;32;40051;-74
2021/12/30 13:14:37;;;;;;;30.20;13.43;;;;;;;5.44;66.45;100187.94;7656605;32;37979;-75
2021/12/30 13:19:25;;;;;;;25.42;13.88;;;;;;;5.53;65.87;100194.69;7656468;32;38221;-75
2021/12/30 13:23:41;;;;;;;29.27;14.15;;;;;;;5.56;65.61;100188.81;7656980;32;39337;-75
2021/12/30 13:28:02;;;;;;;29.48;14.57;;;;;;;5.49;65.84;100195.38;7659075;32;39989;-76
2021/12/30 13:32:22;;;;;;;41.83;17.27;;;;;;;5.55;65.49;100200.69;7647042;32;38016;-75
2021/12/30 13:36:39;;;;;;;30.37;13.25;;;;;;;5.66;65.33;100218.03;7659819;32;37185;-75
2021/12/30 13:40:55;;;;;;;23.05;11.77;;;;;;;5.55;65.43;100229.63;7659753;32;39352;-75
2021/12/30 13:45:11;;;;;;;30.60;12.88;;;;;;;5.26;65.84;100219.38;7659639;32;39940;-75
2021/12/30 13:49:28;;;;;;;26.58;12.48;;;;;;;5.54;65.33;100207.16;7646183;32;38082;-75
2021/12/30 13:53:45;;;;;;;26.95;12.65;;;;;;;5.54;65.18;100217.97;7646233;32;37006;-75
2021/12/30 13:58:07;;;;;;;27.50;13.07;;;;;;;5.65;64.98;100232.59;7659623;32;39205;-75
2021/12/30 14:02:23;;;;;;;29.70;13.57;;;;;;;5.47;65.51;100222.66;7659597;32;41315;-75
2021/12/30 14:06:42;;;;;;;27.55;13.62;;;;;;;5.52;65.63;100216.53;7659580;32;38492;-74
2021/12/30 14:11:03;;;;;;;26.45;13.62;;;;;;;5.25;67.17;100225.81;7659498;32;36078;-75
2021/12/30 14:15:20;;;;;;;34.10;15.20;;;;;;;5.04;68.11;100227.09;7659236;32;39472;-75
2021/12/30 14:19:39;;;;;;;34.65;14.75;;;;;;;5.13;67.84;100245.72;7659244;32;40868;-75
2021/12/30 14:24:12;;;;;;;33.58;16.55;;;;;;;5.29;67.08;100245.09;7659224;32;37993;-74
2021/12/30 14:28:29;;;;;;;36.95;15.05;;;;;;;5.60;66.13;100232.47;7659260;32;37796;-75
2021/12/30 14:32:46;;;;;;;35.40;16.52;;;;;;;5.51;66.18;100237.37;7659154;32;39683;-75
2021/12/30 14:37:12;;;;;;;38.78;15.57;;;;;;;5.49;66.07;100233.25;7658966;32;39668;-76
2021/12/30 14:41:34;;;;;;;34.65;15.90;;;;;;;5.14;67.49;100229.28;7659189;32;37699;-75
2021/12/30 14:45:50;;;;;;;40.35;19.25;;;;;;;5.46;66.67;100223.69;7659138;32;37054;-74
2021/12/30 14:50:20;;;;;;;47.53;21.42;;;;;;;5.30;67.16;100230.56;7659020;32;40218;-75
2021/12/30 14:54:37;;;;;;;41.65;18.80;;;;;;;5.50;66.66;100233.00;7658880;32;39855;-75
2021/12/30 14:58:53;;;;;;;35.33;16.83;;;;;;;5.75;65.77;100234.78;7658554;32;37887;-75
2021/12/30 15:03:09;;;;;;;33.97;16.10;;;;;;;5.76;65.60;100239.97;7658725;32;38207;-75
2021/12/30 15:07:25;;;;;;;41.20;17.52;;;;;;;5.96;64.75;100247.81;7658401;32;39323;-76
2021/12/30 15:11:42;;;;;;;35.00;15.23;;;;;;;5.52;66.36;100257.13;7658461;32;41334;-77
2021/12/30 15:15:58;;;;;;;41.15;16.62;;;;;;;5.75;65.72;100253.72;7658551;32;38884;-77
2021/12/30 15:20:15;;;;;;;83.57;20.25;;;;;;;5.67;65.74;100265.66;7658643;32;37791;-77
2021/12/30 15:24:31;;;;;;;71.05;19.67;;;;;;;5.59;66.33;100277.63;7658528;32;40118;-76
2021/12/30 15:28:48;;;;;;;44.47;18.95;;;;;;;5.50;66.85;100275.44;7658430;32;40146;-76
2021/12/30 15:33:06;;;;;;;51.33;19.90;;;;;;;5.48;66.87;100275.66;7658546;32;37674;-76
2021/12/30 15:37:22;;;;;;;55.80;21.62;;;;;;;5.48;66.87;100270.25;7658426;32;37816;-75
2021/12/30 15:41:41;;;;;;;82.50;28.33;;;;;;;5.51;66.50;100264.41;7658382;32;39475;-75
2021/12/30 15:45:57;;;;;;;50.72;22.98;;;;;;;5.35;67.34;100275.84;7658333;32;38885;-75
2021/12/30 15:50:15;;;;;;;55.75;24.75;;;;;;;5.39;67.24;100294.06;7657573;32;38042;-76
2021/12/30 15:54:32;;;;;;;62.92;27.55;;;;;;;5.65;66.47;100292.13;7658316;32;37109;-75
2021/12/30 15:58:48;;;;;;;54.20;22.77;;;;;;;5.77;65.83;100274.06;7658114;32;40333;-75
2021/12/30 16:03:05;;;;;;;48.72;21.33;;;;;;;5.42;67.16;100287.41;7657920;32;39896;-75
2021/12/30 16:07:21;;;;;;;44.38;20.02;;;;;;;5.61;66.41;100294.44;7657965;32;37929;-76
2021/12/30 16:11:37;;;;;;;46.60;20.80;;;;;;;5.55;66.56;100287.22;7657762;32;37252;-76
2021/12/30 16:15:53;;;;;;;47.78;21.85;;;;;;;5.69;66.10;100295.19;7644011;32;40223;-76
2021/12/30 16:20:11;;;;;;;53.45;24.75;;;;;;;5.70;66.03;100288.75;7657896;32;39981;-75
2021/12/30 16:24:27;;;;;;;62.03;23.73;;;;;;;5.44;66.69;100306.94;7644286;32;37906;-75
2021/12/30 16:28:43;;;;;;;54.22;23.17;;;;;;;5.70;65.94;100304.97;7657789;32;37487;-75
2021/12/30 16:33:00;;;;;;;55.08;24.12;;;;;;;5.52;66.37;100314.75;7657882;32;39388;-76
2021/12/30 16:37:17;;;;;;;65.78;25.90;;;;;;;5.55;66.42;100308.88;7657500;32;40485;-75
2021/12/30 16:41:33;;;;;;;66.47;25.70;;;;;;;5.72;66.04;100317.22;7656729;32;38159;-77
2021/12/30 16:45:50;;;;;;;53.70;22.83;;;;;;;5.54;66.46;100317.25;7656260;32;37915;-77
2021/12/30 16:50:09;;;;;;;51.70;20.52;;;;;;;5.52;66.58;100309.34;7656309;32;39313;-76
2021/12/30 16:54:35;;;;;;;48.95;21.80;;;;;;;5.78;65.77;100297.38;7654673;32;40741;-76
2021/12/30 16:58:51;;;;;;;62.83;24.67;;;;;;;5.74;66.16;100314.28;7654037;32;37960;-75
2021/12/30 17:03:08;;;;;;;51.28;22.80;;;;;;;5.53;66.79;100310.97;7656016;32;37999;-76
2021/12/30 17:07:24;;;;;;;64.65;23.73;;;;;;;5.58;67.11;100308.44;7649262;32;251586;-76
2021/12/30 17:11:40;;;;;;;56.25;22.17;;;;;;;5.64;66.89;100290.47;7656762;32;40010;-76
2021/12/30 17:15:58;;;;;;;92.53;23.38;;;;;;;5.83;66.07;100315.63;7651153;32;38886;-76
2021/12/30 17:20:15;;;;;;;64.72;22.27;;;;;;;5.78;66.02;100300.06;7656011;32;37166;-75
2021/12/30 17:24:31;;;;;;;59.17;20.30;;;;;;;5.55;67.19;100306.16;7655933;32;39391;-75
2021/12/30 17:28:51;;;;;;;168.00;24.20;;;;;;;5.76;66.69;100294.06;7655665;32;39525;-75
2021/12/30 17:33:08;;;;;;;243.50;28.20;;;;;;;5.29;68.71;100299.19;7655930;32;37832;-75
2021/12/30 17:37:24;;;;;;;164.50;24.73;;;;;;;5.36;70.11;100299.13;7641734;32;37638;-75
2021/12/30 17:41:40;;;;;;;128.02;24.35;;;;;;;5.42;68.93;100309.03;7655909;32;39512;-75
2021/12/30 17:45:57;;;;;;;71.07;23.02;;;;;;;5.41;68.68;100318.19;7654009;32;39932;-76
2021/12/30 17:50:22;;;;;;;136.93;30.58;;;;;;;5.56;68.09;100312.41;7654412;32;38055;-76
2021/12/30 17:54:38;;;;;;;128.57;30.70;;;;;;;5.57;67.95;100309.50;7652651;32;37834;-74
2021/12/30 17:58:54;;;;;;;76.62;28.58;;;;;;;5.08;69.67;100316.66;7653652;32;39331;-76
2021/12/30 18:03:11;;;;;;;57.65;27.40;;;;;;;5.36;68.47;100308.03;7654251;32;39823;-75
2021/12/30 18:07:27;;;;;;;71.95;27.77;;;;;;;5.52;68.17;100313.91;7651426;32;37956;-76
2021/12/30 18:11:43;;;;;;;55.38;24.58;;;;;;;5.32;68.48;100320.38;7654663;32;38000;-75
2021/12/30 18:16:00;;;;;;;52.55;23.15;;;;;;;5.47;68.02;100328.13;7657525;32;39876;-74
2021/12/30 18:20:16;;;;;;;55.17;21.45;;;;;;;5.37;68.50;100319.72;7657332;32;39977;-75
2021/12/30 18:24:32;;;;;;;48.55;21.83;;;;;;;5.50;68.05;100316.00;7655837;32;37769;-74
2021/12/30 18:28:49;;;;;;;46.70;19.92;;;;;;;5.65;67.69;100322.69;7657230;32;37405;-76
2021/12/30 18:33:06;;;;;;;43.50;19.37;;;;;;;5.41;68.11;100335.22;7657757;32;40190;-73
2021/12/30 18:37:26;;;;;;;44.92;20.02;;;;;;;5.57;67.92;100339.25;7656867;32;40047;-76
2021/12/30 18:41:42;;;;;;;44.70;20.60;;;;;;;5.54;67.76;100345.09;7657735;32;38545;-75
2021/12/30 18:45:58;;;;;;;47.58;21.83;;;;;;;5.88;66.81;100350.97;7656732;32;37825;-76
2021/12/30 18:50:16;;;;;;;43.92;19.80;;;;;;;5.78;66.92;100350.66;7656017;32;40154;-75
2021/12/30 18:54:32;;;;;;;44.03;19.08;;;;;;;5.91;66.48;100350.47;7657806;32;39642;-77
2021/12/30 18:58:48;;;;;;;38.50;18.35;;;;;;;5.79;67.01;100346.88;7657596;32;38560;-74
2021/12/30 19:03:05;;;;;;;37.22;18.37;;;;;;;5.60;67.52;100344.19;7657770;32;37072;-74
2021/12/30 19:07:21;;;;;;;37.92;17.70;;;;;;;5.87;66.75;100352.00;7657533;32;40077;-73
2021/12/30 19:11:37;;;;;;;117.75;22.70;;;;;;;5.71;67.61;100349.91;7657928;32;40004;-74
2021/12/30 19:15:54;;;;;;;216.18;27.62;;;;;;;5.83;67.41;100353.53;7658389;32;38079;-74
2021/12/30 19:20:11;;;;;;;41.83;19.52;;;;;;;5.66;67.97;100347.88;7658524;32;38238;-74
2021/12/30 19:24:27;;;;;;;42.55;20.85;;;;;;;5.63;68.00;100337.50;7644375;32;40120;-74
2021/12/30 19:28:44;;;;;;;50.50;23.95;;;;;;;5.77;67.61;100339.00;7658500;32;40124;-74
2021/12/30 19:33:01;;;;;;;45.05;22.05;;;;;;;5.64;67.88;100333.75;7658444;32;38597;-74
2021/12/30 19:37:17;;;;;;;52.05;21.50;;;;;;;5.68;67.92;100331.44;7658450;32;37988;-74
2021/12/30 19:41:34;;;;;;;64.90;26.23;;;;;;;5.61;68.03;100326.91;7658405;32;40132;-75
2021/12/30 19:45:50;;;;;;;43.25;21.70;;;;;;;5.57;68.42;100333.00;7658415;32;39631;-74
2021/12/30 19:50:07;;;;;;;52.65;24.05;;;;;;;5.87;67.26;100330.34;7658167;32;38094;-75
2021/12/30 19:54:23;;;;;;;47.10;21.60;;;;;;;5.94;67.09;100331.09;7658110;32;37279;-75